sensor_id;sensor_type;location;lat;lon;timestamp;P1;durP1;ratioP1;P2;durP2;ratioP2
15295;SDS011;7749;49.964;7.890;2024-03-02T00:00:55;12.97;;;11.77;;
15295;SDS011;7749;49.964;7.890;2024-03-02T00:03:23;11.43;;;10.33;;
15295;SDS011;7749;49.964;7.890;2024-03-02T00:05:52;14.90;;;11.43;;
15295;SDS011;7749;49.964;7.890;2024-03-02T00:08:22;12.23;;;11.03;;
15295;SDS011;7749;49.964;7.890;2024-03-02T00:10:51;14.67;;;13.00;;
15295;SDS011;7749;49.964;7.890;2024-03-02T00:13:23;15.17;;;13.30;;
15295;SDS011;7749;49.964;7.890;2024-03-02T00:15:54;13.30;;;11.90;;
15295;SDS011;7749;49.964;7.890;2024-03-02T00:18:33;13.23;;;11.93;;
15295;SDS011;7749;49.964;7.890;2024-03-02T00:21:02;14.23;;;12.83;;
15295;SDS011;7749;49.964;7.890;2024-03-02T00:23:33;13.07;;;11.73;;
15295;SDS011;7749;49.964;7.890;2024-03-02T00:26:01;13.60;;;12.23;;
15295;SDS011;7749;49.964;7.890;2024-03-02T00:28:36;12.67;;;11.40;;
15295;SDS011;7749;49.964;7.890;2024-03-02T00:31:09;13.43;;;12.10;;
15295;SDS011;7749;49.964;7.890;2024-03-02T00:33:41;12.30;;;11.07;;
15295;SDS011;7749;49.964;7.890;2024-03-02T00:36:10;13.97;;;11.60;;
15295;SDS011;7749;49.964;7.890;2024-03-02T00:38:44;13.07;;;11.80;;
15295;SDS011;7749;49.964;7.890;2024-03-02T00:41:22;14.43;;;12.17;;
15295;SDS011;7749;49.964;7.890;2024-03-02T00:46:24;13.77;;;11.57;;
15295;SDS011;7749;49.964;7.890;2024-03-02T00:48:54;12.40;;;11.00;;
15295;SDS011;7749;49.964;7.890;2024-03-02T00:51:24;13.20;;;11.50;;
15295;SDS011;7749;49.964;7.890;2024-03-02T00:53:53;14.00;;;11.93;;
15295;SDS011;7749;49.964;7.890;2024-03-02T00:56:25;13.57;;;12.17;;
15295;SDS011;7749;49.964;7.890;2024-03-02T00:58:54;14.47;;;13.00;;
15295;SDS011;7749;49.964;7.890;2024-03-02T01:01:21;14.17;;;12.40;;
15295;SDS011;7749;49.964;7.890;2024-03-02T01:03:49;14.07;;;12.63;;
15295;SDS011;7749;49.964;7.890;2024-03-02T01:06:17;15.60;;;14.00;;
15295;SDS011;7749;49.964;7.890;2024-03-02T01:08:45;15.30;;;13.77;;
15295;SDS011;7749;49.964;7.890;2024-03-02T01:11:14;14.90;;;13.43;;
15295;SDS011;7749;49.964;7.890;2024-03-02T01:13:41;15.60;;;13.87;;
15295;SDS011;7749;49.964;7.890;2024-03-02T01:16:09;16.80;;;15.00;;
15295;SDS011;7749;49.964;7.890;2024-03-02T01:18:36;15.10;;;13.53;;
15295;SDS011;7749;49.964;7.890;2024-03-02T01:21:03;15.57;;;14.07;;
15295;SDS011;7749;49.964;7.890;2024-03-02T01:23:31;15.07;;;13.63;;
15295;SDS011;7749;49.964;7.890;2024-03-02T01:25:58;16.13;;;14.53;;
15295;SDS011;7749;49.964;7.890;2024-03-02T01:28:26;16.13;;;14.53;;
15295;SDS011;7749;49.964;7.890;2024-03-02T01:30:53;18.43;;;15.43;;
15295;SDS011;7749;49.964;7.890;2024-03-02T01:33:21;17.00;;;14.87;;
15295;SDS011;7749;49.964;7.890;2024-03-02T01:35:48;17.13;;;15.47;;
15295;SDS011;7749;49.964;7.890;2024-03-02T01:38:15;17.17;;;15.37;;
15295;SDS011;7749;49.964;7.890;2024-03-02T01:40:43;17.70;;;16.00;;
15295;SDS011;7749;49.964;7.890;2024-03-02T01:43:11;17.20;;;15.40;;
15295;SDS011;7749;49.964;7.890;2024-03-02T01:45:39;17.80;;;16.00;;
15295;SDS011;7749;49.964;7.890;2024-03-02T01:48:06;17.53;;;15.57;;
15295;SDS011;7749;49.964;7.890;2024-03-02T01:50:34;17.50;;;15.70;;
15295;SDS011;7749;49.964;7.890;2024-03-02T01:53:02;19.73;;;16.97;;
15295;SDS011;7749;49.964;7.890;2024-03-02T01:55:30;19.37;;;17.37;;
15295;SDS011;7749;49.964;7.890;2024-03-02T01:57:59;19.93;;;17.83;;
15295;SDS011;7749;49.964;7.890;2024-03-02T02:00:27;20.83;;;18.07;;
15295;SDS011;7749;49.964;7.890;2024-03-02T02:02:55;22.97;;;19.03;;
15295;SDS011;7749;49.964;7.890;2024-03-02T02:05:23;20.70;;;18.50;;
15295;SDS011;7749;49.964;7.890;2024-03-02T02:07:51;20.53;;;18.33;;
15295;SDS011;7749;49.964;7.890;2024-03-02T02:10:19;20.93;;;18.77;;
15295;SDS011;7749;49.964;7.890;2024-03-02T02:12:47;25.40;;;19.97;;
15295;SDS011;7749;49.964;7.890;2024-03-02T02:15:29;22.37;;;19.77;;
15295;SDS011;7749;49.964;7.890;2024-03-02T02:17:58;24.07;;;21.57;;
15295;SDS011;7749;49.964;7.890;2024-03-02T02:20:26;23.13;;;20.83;;
15295;SDS011;7749;49.964;7.890;2024-03-02T02:22:54;23.00;;;20.63;;
15295;SDS011;7749;49.964;7.890;2024-03-02T02:25:26;23.97;;;21.00;;
15295;SDS011;7749;49.964;7.890;2024-03-02T02:27:55;23.47;;;20.97;;
15295;SDS011;7749;49.964;7.890;2024-03-02T02:32:54;22.43;;;20.07;;
15295;SDS011;7749;49.964;7.890;2024-03-02T02:35:21;25.43;;;22.67;;
15295;SDS011;7749;49.964;7.890;2024-03-02T02:37:52;24.27;;;21.70;;
15295;SDS011;7749;49.964;7.890;2024-03-02T02:40:20;23.80;;;21.07;;
15295;SDS011;7749;49.964;7.890;2024-03-02T02:42:50;22.33;;;19.83;;
15295;SDS011;7749;49.964;7.890;2024-03-02T02:45:21;23.40;;;21.00;;
15295;SDS011;7749;49.964;7.890;2024-03-02T02:47:48;22.70;;;20.30;;
15295;SDS011;7749;49.964;7.890;2024-03-02T02:50:16;25.27;;;21.40;;
15295;SDS011;7749;49.964;7.890;2024-03-02T02:52:43;23.80;;;20.90;;
15295;SDS011;7749;49.964;7.890;2024-03-02T02:55:11;23.77;;;21.17;;
15295;SDS011;7749;49.964;7.890;2024-03-02T02:57:40;23.47;;;20.33;;
15295;SDS011;7749;49.964;7.890;2024-03-02T03:00:11;25.53;;;21.27;;
15295;SDS011;7749;49.964;7.890;2024-03-02T03:02:46;24.00;;;21.47;;
15295;SDS011;7749;49.964;7.890;2024-03-02T03:05:17;24.13;;;21.63;;
15295;SDS011;7749;49.964;7.890;2024-03-02T03:07:45;26.77;;;23.53;;
15295;SDS011;7749;49.964;7.890;2024-03-02T03:10:12;25.73;;;22.93;;
15295;SDS011;7749;49.964;7.890;2024-03-02T03:12:41;26.27;;;22.67;;
15295;SDS011;7749;49.964;7.890;2024-03-02T03:15:11;23.63;;;20.87;;
15295;SDS011;7749;49.964;7.890;2024-03-02T03:17:40;25.07;;;22.37;;
15295;SDS011;7749;49.964;7.890;2024-03-02T03:20:08;25.03;;;21.67;;
15295;SDS011;7749;49.964;7.890;2024-03-02T03:22:38;27.10;;;24.10;;
15295;SDS011;7749;49.964;7.890;2024-03-02T03:25:06;26.57;;;23.03;;
15295;SDS011;7749;49.964;7.890;2024-03-02T03:27:36;27.10;;;24.20;;
15295;SDS011;7749;49.964;7.890;2024-03-02T03:30:04;27.40;;;24.43;;
15295;SDS011;7749;49.964;7.890;2024-03-02T03:32:33;28.40;;;24.00;;
15295;SDS011;7749;49.964;7.890;2024-03-02T03:35:01;27.90;;;24.90;;
15295;SDS011;7749;49.964;7.890;2024-03-02T03:37:28;26.07;;;22.70;;
15295;SDS011;7749;49.964;7.890;2024-03-02T03:40:01;25.80;;;23.10;;
15295;SDS011;7749;49.964;7.890;2024-03-02T03:42:29;26.80;;;23.07;;
15295;SDS011;7749;49.964;7.890;2024-03-02T03:44:57;26.57;;;23.67;;
15295;SDS011;7749;49.964;7.890;2024-03-02T03:47:24;27.20;;;24.30;;
15295;SDS011;7749;49.964;7.890;2024-03-02T03:49:52;28.77;;;25.77;;
15295;SDS011;7749;49.964;7.890;2024-03-02T03:52:19;29.63;;;24.70;;
15295;SDS011;7749;49.964;7.890;2024-03-02T03:54:47;29.27;;;26.00;;
15295;SDS011;7749;49.964;7.890;2024-03-02T03:57:15;28.10;;;25.37;;
15295;SDS011;7749;49.964;7.890;2024-03-02T03:59:43;27.73;;;24.93;;
15295;SDS011;7749;49.964;7.890;2024-03-02T04:02:11;26.27;;;23.37;;
15295;SDS011;7749;49.964;7.890;2024-03-02T04:04:39;27.50;;;24.57;;
15295;SDS011;7749;49.964;7.890;2024-03-02T04:07:07;27.23;;;23.87;;
15295;SDS011;7749;49.964;7.890;2024-03-02T04:09:34;29.13;;;25.87;;
15295;SDS011;7749;49.964;7.890;2024-03-02T04:12:02;29.83;;;26.37;;
15295;SDS011;7749;49.964;7.890;2024-03-02T04:14:29;27.70;;;24.43;;
15295;SDS011;7749;49.964;7.890;2024-03-02T04:16:56;27.97;;;24.53;;
15295;SDS011;7749;49.964;7.890;2024-03-02T04:19:24;29.67;;;24.40;;
15295;SDS011;7749;49.964;7.890;2024-03-02T04:21:51;31.33;;;26.80;;
15295;SDS011;7749;49.964;7.890;2024-03-02T04:24:18;32.37;;;25.80;;
15295;SDS011;7749;49.964;7.890;2024-03-02T04:26:46;31.40;;;25.77;;
15295;SDS011;7749;49.964;7.890;2024-03-02T04:29:13;31.73;;;28.47;;
15295;SDS011;7749;49.964;7.890;2024-03-02T04:31:40;29.33;;;26.17;;
15295;SDS011;7749;49.964;7.890;2024-03-02T04:34:08;29.97;;;25.60;;
15295;SDS011;7749;49.964;7.890;2024-03-02T04:36:36;30.77;;;25.87;;
15295;SDS011;7749;49.964;7.890;2024-03-02T04:39:04;30.30;;;25.50;;
15295;SDS011;7749;49.964;7.890;2024-03-02T04:41:31;29.33;;;26.17;;
15295;SDS011;7749;49.964;7.890;2024-03-02T04:43:58;27.63;;;24.07;;
15295;SDS011;7749;49.964;7.890;2024-03-02T04:46:26;25.63;;;22.90;;
15295;SDS011;7749;49.964;7.890;2024-03-02T04:48:53;28.57;;;22.83;;
15295;SDS011;7749;49.964;7.890;2024-03-02T04:51:24;26.77;;;23.87;;
15295;SDS011;7749;49.964;7.890;2024-03-02T04:53:51;27.37;;;23.77;;
15295;SDS011;7749;49.964;7.890;2024-03-02T04:56:18;24.47;;;21.73;;
15295;SDS011;7749;49.964;7.890;2024-03-02T04:58:58;25.07;;;22.43;;
15295;SDS011;7749;49.964;7.890;2024-03-02T05:01:25;26.20;;;22.27;;
15295;SDS011;7749;49.964;7.890;2024-03-02T05:03:53;27.87;;;23.77;;
15295;SDS011;7749;49.964;7.890;2024-03-02T05:06:20;24.10;;;21.47;;
15295;SDS011;7749;49.964;7.890;2024-03-02T05:08:48;23.80;;;21.23;;
15295;SDS011;7749;49.964;7.890;2024-03-02T05:11:15;25.53;;;22.73;;
15295;SDS011;7749;49.964;7.890;2024-03-02T05:14:01;23.57;;;21.13;;
15295;SDS011;7749;49.964;7.890;2024-03-02T05:16:28;26.53;;;22.00;;
15295;SDS011;7749;49.964;7.890;2024-03-02T05:18:56;24.03;;;21.13;;
15295;SDS011;7749;49.964;7.890;2024-03-02T05:21:23;23.83;;;21.27;;
15295;SDS011;7749;49.964;7.890;2024-03-02T05:23:51;24.43;;;20.93;;
15295;SDS011;7749;49.964;7.890;2024-03-02T05:26:18;23.97;;;21.40;;
15295;SDS011;7749;49.964;7.890;2024-03-02T05:28:45;23.73;;;21.20;;
15295;SDS011;7749;49.964;7.890;2024-03-02T05:31:14;25.33;;;21.90;;
15295;SDS011;7749;49.964;7.890;2024-03-02T05:33:42;24.87;;;21.83;;
15295;SDS011;7749;49.964;7.890;2024-03-02T05:36:10;24.70;;;21.20;;
15295;SDS011;7749;49.964;7.890;2024-03-02T05:38:37;23.70;;;21.20;;
15295;SDS011;7749;49.964;7.890;2024-03-02T05:41:05;24.50;;;21.73;;
15295;SDS011;7749;49.964;7.890;2024-03-02T05:43:32;23.87;;;20.60;;
15295;SDS011;7749;49.964;7.890;2024-03-02T05:46:00;24.33;;;20.60;;
15295;SDS011;7749;49.964;7.890;2024-03-02T05:48:27;23.57;;;19.83;;
15295;SDS011;7749;49.964;7.890;2024-03-02T05:50:55;41.47;;;31.03;;
15295;SDS011;7749;49.964;7.890;2024-03-02T05:53:23;34.50;;;26.50;;
15295;SDS011;7749;49.964;7.890;2024-03-02T05:55:50;29.33;;;23.83;;
15295;SDS011;7749;49.964;7.890;2024-03-02T05:58:22;31.70;;;25.87;;
15295;SDS011;7749;49.964;7.890;2024-03-02T06:01:08;29.57;;;24.33;;
15295;SDS011;7749;49.964;7.890;2024-03-02T06:03:36;25.77;;;22.97;;
15295;SDS011;7749;49.964;7.890;2024-03-02T06:06:03;25.23;;;22.27;;
15295;SDS011;7749;49.964;7.890;2024-03-02T06:08:31;24.93;;;21.43;;
15295;SDS011;7749;49.964;7.890;2024-03-02T06:10:58;27.63;;;24.00;;
15295;SDS011;7749;49.964;7.890;2024-03-02T06:13:26;23.53;;;20.30;;
15295;SDS011;7749;49.964;7.890;2024-03-02T06:15:53;23.57;;;21.07;;
15295;SDS011;7749;49.964;7.890;2024-03-02T06:18:20;24.40;;;21.67;;
15295;SDS011;7749;49.964;7.890;2024-03-02T06:20:48;25.67;;;20.90;;
15295;SDS011;7749;49.964;7.890;2024-03-02T06:23:16;25.13;;;22.47;;
15295;SDS011;7749;49.964;7.890;2024-03-02T06:25:43;23.63;;;21.13;;
15295;SDS011;7749;49.964;7.890;2024-03-02T06:28:10;25.07;;;22.00;;
15295;SDS011;7749;49.964;7.890;2024-03-02T06:30:38;24.43;;;21.83;;
15295;SDS011;7749;49.964;7.890;2024-03-02T06:33:05;29.23;;;25.53;;
15295;SDS011;7749;49.964;7.890;2024-03-02T06:35:33;26.00;;;22.83;;
15295;SDS011;7749;49.964;7.890;2024-03-02T06:38:02;24.73;;;22.10;;
15295;SDS011;7749;49.964;7.890;2024-03-02T06:40:29;23.93;;;21.43;;
15295;SDS011;7749;49.964;7.890;2024-03-02T06:42:56;22.37;;;19.97;;
15295;SDS011;7749;49.964;7.890;2024-03-02T06:45:24;23.00;;;19.73;;
15295;SDS011;7749;49.964;7.890;2024-03-02T06:47:51;23.33;;;20.53;;
15295;SDS011;7749;49.964;7.890;2024-03-02T06:50:19;22.77;;;20.37;;
15295;SDS011;7749;49.964;7.890;2024-03-02T06:52:46;23.87;;;20.87;;
15295;SDS011;7749;49.964;7.890;2024-03-02T06:55:13;21.77;;;19.33;;
15295;SDS011;7749;49.964;7.890;2024-03-02T06:57:41;22.30;;;19.37;;
15295;SDS011;7749;49.964;7.890;2024-03-02T07:00:08;23.17;;;20.73;;
15295;SDS011;7749;49.964;7.890;2024-03-02T07:02:36;23.47;;;20.60;;
15295;SDS011;7749;49.964;7.890;2024-03-02T07:05:04;23.23;;;19.50;;
15295;SDS011;7749;49.964;7.890;2024-03-02T07:07:33;21.90;;;19.50;;
15295;SDS011;7749;49.964;7.890;2024-03-02T07:10:02;22.97;;;19.23;;
15295;SDS011;7749;49.964;7.890;2024-03-02T07:12:31;21.73;;;19.43;;
15295;SDS011;7749;49.964;7.890;2024-03-02T07:14:59;23.37;;;19.83;;
15295;SDS011;7749;49.964;7.890;2024-03-02T07:17:32;22.30;;;19.77;;
15295;SDS011;7749;49.964;7.890;2024-03-02T07:20:00;20.90;;;18.53;;
15295;SDS011;7749;49.964;7.890;2024-03-02T07:22:27;21.90;;;18.13;;
15295;SDS011;7749;49.964;7.890;2024-03-02T07:24:54;21.57;;;18.10;;
15295;SDS011;7749;49.964;7.890;2024-03-02T07:27:22;22.10;;;18.87;;
15295;SDS011;7749;49.964;7.890;2024-03-02T07:29:50;21.70;;;19.40;;
15295;SDS011;7749;49.964;7.890;2024-03-02T07:32:17;20.23;;;18.17;;
15295;SDS011;7749;49.964;7.890;2024-03-02T07:34:44;21.20;;;17.43;;
15295;SDS011;7749;49.964;7.890;2024-03-02T07:37:12;21.33;;;16.90;;
15295;SDS011;7749;49.964;7.890;2024-03-02T07:39:39;17.57;;;15.10;;
15295;SDS011;7749;49.964;7.890;2024-03-02T07:42:06;18.33;;;16.37;;
15295;SDS011;7749;49.964;7.890;2024-03-02T07:44:34;18.43;;;15.97;;
15295;SDS011;7749;49.964;7.890;2024-03-02T07:47:01;18.83;;;16.83;;
15295;SDS011;7749;49.964;7.890;2024-03-02T07:49:29;20.03;;;16.93;;
15295;SDS011;7749;49.964;7.890;2024-03-02T07:51:56;18.43;;;14.97;;
15295;SDS011;7749;49.964;7.890;2024-03-02T07:54:24;18.43;;;15.20;;
15295;SDS011;7749;49.964;7.890;2024-03-02T07:56:51;17.27;;;15.43;;
15295;SDS011;7749;49.964;7.890;2024-03-02T07:59:19;17.07;;;15.30;;
15295;SDS011;7749;49.964;7.890;2024-03-02T08:01:48;18.60;;;15.40;;
15295;SDS011;7749;49.964;7.890;2024-03-02T08:04:17;17.70;;;15.63;;
15295;SDS011;7749;49.964;7.890;2024-03-02T08:06:45;18.50;;;16.10;;
15295;SDS011;7749;49.964;7.890;2024-03-02T08:09:12;18.40;;;15.43;;
15295;SDS011;7749;49.964;7.890;2024-03-02T08:11:39;16.30;;;14.60;;
15295;SDS011;7749;49.964;7.890;2024-03-02T08:14:07;19.43;;;14.67;;
15295;SDS011;7749;49.964;7.890;2024-03-02T08:16:34;19.90;;;15.50;;
15295;SDS011;7749;49.964;7.890;2024-03-02T08:19:02;16.53;;;14.83;;
15295;SDS011;7749;49.964;7.890;2024-03-02T08:21:30;17.40;;;14.63;;
15295;SDS011;7749;49.964;7.890;2024-03-02T08:23:59;17.00;;;14.43;;
15295;SDS011;7749;49.964;7.890;2024-03-02T08:26:27;16.67;;;14.17;;
15295;SDS011;7749;49.964;7.890;2024-03-02T08:28:57;16.03;;;13.50;;
15295;SDS011;7749;49.964;7.890;2024-03-02T08:31:25;16.23;;;14.40;;
15295;SDS011;7749;49.964;7.890;2024-03-02T08:33:53;15.17;;;13.50;;
15295;SDS011;7749;49.964;7.890;2024-03-02T08:36:20;15.00;;;13.37;;
15295;SDS011;7749;49.964;7.890;2024-03-02T08:38:48;16.77;;;14.20;;
15295;SDS011;7749;49.964;7.890;2024-03-02T08:41:17;15.30;;;12.90;;
15295;SDS011;7749;49.964;7.890;2024-03-02T08:43:45;14.43;;;12.93;;
15295;SDS011;7749;49.964;7.890;2024-03-02T08:46:12;15.60;;;13.33;;
15295;SDS011;7749;49.964;7.890;2024-03-02T08:48:40;15.37;;;13.73;;
15295;SDS011;7749;49.964;7.890;2024-03-02T08:51:08;15.40;;;13.80;;
15295;SDS011;7749;49.964;7.890;2024-03-02T08:53:37;14.60;;;12.90;;
15295;SDS011;7749;49.964;7.890;2024-03-02T08:56:05;18.00;;;13.60;;
15295;SDS011;7749;49.964;7.890;2024-03-02T08:58:33;13.97;;;12.30;;
15295;SDS011;7749;49.964;7.890;2024-03-02T09:01:00;15.47;;;13.53;;
15295;SDS011;7749;49.964;7.890;2024-03-02T09:03:28;14.80;;;12.53;;
15295;SDS011;7749;49.964;7.890;2024-03-02T09:05:56;16.10;;;12.77;;
15295;SDS011;7749;49.964;7.890;2024-03-02T09:08:24;13.93;;;12.43;;
15295;SDS011;7749;49.964;7.890;2024-03-02T09:10:52;14.57;;;12.63;;
15295;SDS011;7749;49.964;7.890;2024-03-02T09:13:19;13.50;;;11.53;;
15295;SDS011;7749;49.964;7.890;2024-03-02T09:15:47;11.80;;;10.60;;
15295;SDS011;7749;49.964;7.890;2024-03-02T09:18:15;12.73;;;11.37;;
15295;SDS011;7749;49.964;7.890;2024-03-02T09:20:42;13.60;;;11.53;;
15295;SDS011;7749;49.964;7.890;2024-03-02T09:23:10;14.20;;;10.90;;
15295;SDS011;7749;49.964;7.890;2024-03-02T09:25:37;13.50;;;11.87;;
15295;SDS011;7749;49.964;7.890;2024-03-02T09:28:04;14.60;;;11.00;;
15295;SDS011;7749;49.964;7.890;2024-03-02T09:30:32;15.43;;;11.90;;
15295;SDS011;7749;49.964;7.890;2024-03-02T09:33:00;13.30;;;11.63;;
15295;SDS011;7749;49.964;7.890;2024-03-02T09:35:30;11.77;;;10.53;;
15295;SDS011;7749;49.964;7.890;2024-03-02T09:37:58;11.83;;;10.63;;
15295;SDS011;7749;49.964;7.890;2024-03-02T09:40:25;11.50;;;10.30;;
15295;SDS011;7749;49.964;7.890;2024-03-02T09:42:53;11.17;;;9.97;;
15295;SDS011;7749;49.964;7.890;2024-03-02T09:45:23;12.07;;;9.90;;
15295;SDS011;7749;49.964;7.890;2024-03-02T09:47:51;11.37;;;10.10;;
15295;SDS011;7749;49.964;7.890;2024-03-02T09:50:19;13.10;;;9.97;;
15295;SDS011;7749;49.964;7.890;2024-03-02T09:52:49;10.83;;;9.10;;
15295;SDS011;7749;49.964;7.890;2024-03-02T09:55:19;10.37;;;9.27;;
15295;SDS011;7749;49.964;7.890;2024-03-02T09:57:47;12.37;;;8.93;;
15295;SDS011;7749;49.964;7.890;2024-03-02T10:00:15;10.77;;;9.37;;
15295;SDS011;7749;49.964;7.890;2024-03-02T10:02:43;14.67;;;9.60;;
15295;SDS011;7749;49.964;7.890;2024-03-02T10:05:11;14.20;;;10.23;;
15295;SDS011;7749;49.964;7.890;2024-03-02T10:07:39;10.30;;;9.20;;
15295;SDS011;7749;49.964;7.890;2024-03-02T10:10:13;11.97;;;9.87;;
15295;SDS011;7749;49.964;7.890;2024-03-02T10:12:41;16.80;;;9.30;;
15295;SDS011;7749;49.964;7.890;2024-03-02T10:15:09;12.33;;;10.33;;
15295;SDS011;7749;49.964;7.890;2024-03-02T10:17:37;14.17;;;10.27;;
15295;SDS011;7749;49.964;7.890;2024-03-02T10:20:24;11.20;;;9.50;;
15295;SDS011;7749;49.964;7.890;2024-03-02T10:22:52;16.37;;;10.07;;
15295;SDS011;7749;49.964;7.890;2024-03-02T10:25:29;15.73;;;9.93;;
15295;SDS011;7749;49.964;7.890;2024-03-02T10:28:13;13.67;;;10.47;;
15295;SDS011;7749;49.964;7.890;2024-03-02T10:30:42;12.20;;;10.63;;
15295;SDS011;7749;49.964;7.890;2024-03-02T10:33:10;15.13;;;12.73;;
15295;SDS011;7749;49.964;7.890;2024-03-02T10:35:38;14.73;;;10.60;;
15295;SDS011;7749;49.964;7.890;2024-03-02T10:38:06;14.00;;;10.87;;
15295;SDS011;7749;49.964;7.890;2024-03-02T10:40:33;13.27;;;10.67;;
15295;SDS011;7749;49.964;7.890;2024-03-02T10:43:01;15.30;;;10.43;;
15295;SDS011;7749;49.964;7.890;2024-03-02T10:45:32;13.47;;;11.27;;
15295;SDS011;7749;49.964;7.890;2024-03-02T10:48:01;12.20;;;10.33;;
15295;SDS011;7749;49.964;7.890;2024-03-02T10:50:29;12.50;;;10.40;;
15295;SDS011;7749;49.964;7.890;2024-03-02T10:53:03;15.17;;;10.70;;
15295;SDS011;7749;49.964;7.890;2024-03-02T10:55:52;14.87;;;11.27;;
15295;SDS011;7749;49.964;7.890;2024-03-02T10:58:32;12.80;;;10.00;;
15295;SDS011;7749;49.964;7.890;2024-03-02T11:01:03;15.80;;;11.43;;
15295;SDS011;7749;49.964;7.890;2024-03-02T11:03:36;17.33;;;11.80;;
15295;SDS011;7749;49.964;7.890;2024-03-02T11:06:06;13.53;;;10.30;;
15295;SDS011;7749;49.964;7.890;2024-03-02T11:08:35;13.10;;;10.70;;
15295;SDS011;7749;49.964;7.890;2024-03-02T11:11:07;11.43;;;10.23;;
15295;SDS011;7749;49.964;7.890;2024-03-02T11:13:40;17.00;;;11.20;;
15295;SDS011;7749;49.964;7.890;2024-03-02T11:16:16;15.33;;;10.90;;
15295;SDS011;7749;49.964;7.890;2024-03-02T11:18:48;12.43;;;9.63;;
15295;SDS011;7749;49.964;7.890;2024-03-02T11:21:16;11.93;;;9.50;;
15295;SDS011;7749;49.964;7.890;2024-03-02T11:23:44;10.90;;;8.65;;
15295;SDS011;7749;49.964;7.890;2024-03-02T11:26:18;11.65;;;9.40;;
15295;SDS011;7749;49.964;7.890;2024-03-02T11:28:46;10.95;;;9.82;;
15295;SDS011;7749;49.964;7.890;2024-03-02T11:31:14;10.90;;;9.40;;
15295;SDS011;7749;49.964;7.890;2024-03-02T11:33:41;12.93;;;9.20;;
15295;SDS011;7749;49.964;7.890;2024-03-02T11:36:10;13.35;;;9.63;;
15295;SDS011;7749;49.964;7.890;2024-03-02T11:38:38;13.40;;;9.45;;
15295;SDS011;7749;49.964;7.890;2024-03-02T11:41:10;10.52;;;9.43;;
15295;SDS011;7749;49.964;7.890;2024-03-02T11:43:38;11.80;;;8.52;;
15295;SDS011;7749;49.964;7.890;2024-03-02T11:46:06;9.48;;;8.32;;
15295;SDS011;7749;49.964;7.890;2024-03-02T11:48:35;11.20;;;8.70;;
15295;SDS011;7749;49.964;7.890;2024-03-02T11:51:06;12.18;;;8.30;;
15295;SDS011;7749;49.964;7.890;2024-03-02T11:53:35;9.38;;;8.57;;
15295;SDS011;7749;49.964;7.890;2024-03-02T11:56:06;12.20;;;8.77;;
15295;SDS011;7749;49.964;7.890;2024-03-02T11:58:36;12.98;;;8.65;;
15295;SDS011;7749;49.964;7.890;2024-03-02T12:01:05;10.02;;;9.02;;
15295;SDS011;7749;49.964;7.890;2024-03-02T12:03:33;12.18;;;9.75;;
15295;SDS011;7749;49.964;7.890;2024-03-02T12:06:02;11.07;;;9.43;;
15295;SDS011;7749;49.964;7.890;2024-03-02T12:08:30;9.80;;;8.90;;
15295;SDS011;7749;49.964;7.890;2024-03-02T12:10:59;13.35;;;9.70;;
15295;SDS011;7749;49.964;7.890;2024-03-02T12:13:29;9.73;;;8.82;;
15295;SDS011;7749;49.964;7.890;2024-03-02T12:15:56;12.27;;;9.80;;
15295;SDS011;7749;49.964;7.890;2024-03-02T12:18:25;13.93;;;10.15;;
15295;SDS011;7749;49.964;7.890;2024-03-02T12:20:53;15.13;;;9.65;;
15295;SDS011;7749;49.964;7.890;2024-03-02T12:23:25;10.02;;;8.85;;
15295;SDS011;7749;49.964;7.890;2024-03-02T12:25:52;13.18;;;9.27;;
15295;SDS011;7749;49.964;7.890;2024-03-02T12:28:20;10.20;;;9.20;;
15295;SDS011;7749;49.964;7.890;2024-03-02T12:30:47;13.40;;;8.75;;
15295;SDS011;7749;49.964;7.890;2024-03-02T12:33:16;12.30;;;9.20;;
15295;SDS011;7749;49.964;7.890;2024-03-02T12:35:44;9.75;;;8.75;;
15295;SDS011;7749;49.964;7.890;2024-03-02T12:38:11;11.25;;;9.57;;
15295;SDS011;7749;49.964;7.890;2024-03-02T12:40:40;11.93;;;9.02;;
15295;SDS011;7749;49.964;7.890;2024-03-02T12:43:07;9.93;;;8.30;;
15295;SDS011;7749;49.964;7.890;2024-03-02T12:45:35;11.07;;;9.98;;
15295;SDS011;7749;49.964;7.890;2024-03-02T12:48:04;10.10;;;8.93;;
15295;SDS011;7749;49.964;7.890;2024-03-02T12:50:32;11.18;;;9.07;;
15295;SDS011;7749;49.964;7.890;2024-03-02T12:53:01;11.02;;;8.85;;
15295;SDS011;7749;49.964;7.890;2024-03-02T12:55:29;10.55;;;8.95;;
15295;SDS011;7749;49.964;7.890;2024-03-02T12:57:57;11.68;;;9.60;;
15295;SDS011;7749;49.964;7.890;2024-03-02T13:00:26;8.75;;;7.97;;
15295;SDS011;7749;49.964;7.890;2024-03-02T13:02:53;10.23;;;8.23;;
15295;SDS011;7749;49.964;7.890;2024-03-02T13:05:31;8.60;;;7.75;;
15295;SDS011;7749;49.964;7.890;2024-03-02T13:07:59;8.70;;;7.88;;
15295;SDS011;7749;49.964;7.890;2024-03-02T13:10:27;11.65;;;8.20;;
15295;SDS011;7749;49.964;7.890;2024-03-02T13:12:56;9.85;;;8.00;;
15295;SDS011;7749;49.964;7.890;2024-03-02T13:15:25;10.73;;;8.30;;
15295;SDS011;7749;49.964;7.890;2024-03-02T13:17:54;9.55;;;8.48;;
15295;SDS011;7749;49.964;7.890;2024-03-02T13:20:30;9.52;;;7.60;;
15295;SDS011;7749;49.964;7.890;2024-03-02T13:22:59;8.77;;;7.45;;
15295;SDS011;7749;49.964;7.890;2024-03-02T13:25:26;11.38;;;7.65;;
15295;SDS011;7749;49.964;7.890;2024-03-02T13:27:56;8.52;;;7.05;;
15295;SDS011;7749;49.964;7.890;2024-03-02T13:30:25;8.65;;;7.28;;
15295;SDS011;7749;49.964;7.890;2024-03-02T13:32:52;9.63;;;6.78;;
15295;SDS011;7749;49.964;7.890;2024-03-02T13:35:20;7.80;;;7.10;;
15295;SDS011;7749;49.964;7.890;2024-03-02T13:37:48;7.43;;;6.68;;
15295;SDS011;7749;49.964;7.890;2024-03-02T13:40:16;7.82;;;6.53;;
15295;SDS011;7749;49.964;7.890;2024-03-02T13:42:47;6.75;;;5.93;;
15295;SDS011;7749;49.964;7.890;2024-03-02T13:45:16;6.30;;;5.70;;
15295;SDS011;7749;49.964;7.890;2024-03-02T13:47:44;8.40;;;6.00;;
15295;SDS011;7749;49.964;7.890;2024-03-02T13:50:12;6.68;;;6.07;;
15295;SDS011;7749;49.964;7.890;2024-03-02T13:52:39;6.18;;;5.57;;
15295;SDS011;7749;49.964;7.890;2024-03-02T13:55:07;7.50;;;6.30;;
15295;SDS011;7749;49.964;7.890;2024-03-02T13:57:35;6.47;;;5.80;;
15295;SDS011;7749;49.964;7.890;2024-03-02T14:00:02;6.20;;;5.60;;
15295;SDS011;7749;49.964;7.890;2024-03-02T14:02:37;10.82;;;5.80;;
15295;SDS011;7749;49.964;7.890;2024-03-02T14:05:04;6.10;;;5.50;;
15295;SDS011;7749;49.964;7.890;2024-03-02T14:07:32;8.25;;;5.70;;
15295;SDS011;7749;49.964;7.890;2024-03-02T14:09:59;5.60;;;5.15;;
15295;SDS011;7749;49.964;7.890;2024-03-02T14:12:27;6.88;;;5.28;;
15295;SDS011;7749;49.964;7.890;2024-03-02T14:14:54;7.10;;;5.38;;
15295;SDS011;7749;49.964;7.890;2024-03-02T14:17:25;5.43;;;4.88;;
15295;SDS011;7749;49.964;7.890;2024-03-02T14:19:52;6.38;;;5.00;;
15295;SDS011;7749;49.964;7.890;2024-03-02T14:22:23;5.82;;;5.07;;
15295;SDS011;7749;49.964;7.890;2024-03-02T14:24:51;6.40;;;5.10;;
15295;SDS011;7749;49.964;7.890;2024-03-02T14:27:19;8.32;;;4.70;;
15295;SDS011;7749;49.964;7.890;2024-03-02T14:30:04;6.72;;;4.70;;
15295;SDS011;7749;49.964;7.890;2024-03-02T14:32:32;3.42;;;2.47;;
15295;SDS011;7749;49.964;7.890;2024-03-02T14:34:59;3.42;;;2.00;;
15295;SDS011;7749;49.964;7.890;2024-03-02T14:37:27;2.03;;;1.70;;
15295;SDS011;7749;49.964;7.890;2024-03-02T14:39:54;8.95;;;1.95;;
15295;SDS011;7749;49.964;7.890;2024-03-02T14:42:22;3.17;;;1.30;;
15295;SDS011;7749;49.964;7.890;2024-03-02T14:44:49;1.67;;;1.20;;
15295;SDS011;7749;49.964;7.890;2024-03-02T14:47:17;3.97;;;2.40;;
15295;SDS011;7749;49.964;7.890;2024-03-02T14:49:44;6.05;;;3.03;;
15295;SDS011;7749;49.964;7.890;2024-03-02T14:52:11;9.57;;;2.72;;
15295;SDS011;7749;49.964;7.890;2024-03-02T14:54:39;2.47;;;1.55;;